sensor_id;sensor_type;location;lat;lon;timestamp;temperature;humidity
4584;DHT22;2304;47.606;12.186;2023-07-30T00:03:14;19.70;94.60
4584;DHT22;2304;47.606;12.186;2023-07-30T00:08:17;19.60;94.10
4584;DHT22;2304;47.606;12.186;2023-07-30T00:13:19;19.60;94.50
4584;DHT22;2304;47.606;12.186;2023-07-30T00:18:21;19.50;94.40
4584;DHT22;2304;47.606;12.186;2023-07-30T00:23:24;19.70;94.40
4584;DHT22;2304;47.606;12.186;2023-07-30T00:28:26;19.70;92.90
4584;DHT22;2304;47.606;12.186;2023-07-30T00:33:27;19.70;92.30
4584;DHT22;2304;47.606;12.186;2023-07-30T00:38:31;19.70;92.00
4584;DHT22;2304;47.606;12.186;2023-07-30T00:43:33;19.80;91.70
4584;DHT22;2304;47.606;12.186;2023-07-30T00:48:35;19.80;91.50
4584;DHT22;2304;47.606;12.186;2023-07-30T00:53:38;19.80;91.00
4584;DHT22;2304;47.606;12.186;2023-07-30T00:58:40;19.90;91.30
4584;DHT22;2304;47.606;12.186;2023-07-30T01:03:42;19.90;92.40
4584;DHT22;2304;47.606;12.186;2023-07-30T01:08:45;19.90;91.70
4584;DHT22;2304;47.606;12.186;2023-07-30T01:13:47;19.80;91.00
4584;DHT22;2304;47.606;12.186;2023-07-30T01:18:50;19.80;90.90
4584;DHT22;2304;47.606;12.186;2023-07-30T01:23:53;19.80;91.00
4584;DHT22;2304;47.606;12.186;2023-07-30T01:28:56;19.70;90.20
4584;DHT22;2304;47.606;12.186;2023-07-30T01:34:03;19.70;90.20
4584;DHT22;2304;47.606;12.186;2023-07-30T01:39:08;19.70;90.40
4584;DHT22;2304;47.606;12.186;2023-07-30T01:44:11;19.70;91.10
4584;DHT22;2304;47.606;12.186;2023-07-30T01:49:12;19.70;91.40
4584;DHT22;2304;47.606;12.186;2023-07-30T01:54:16;19.70;91.60
4584;DHT22;2304;47.606;12.186;2023-07-30T01:59:17;19.60;91.90
4584;DHT22;2304;47.606;12.186;2023-07-30T02:04:19;19.60;92.20
4584;DHT22;2304;47.606;12.186;2023-07-30T02:09:22;19.60;91.70
4584;DHT22;2304;47.606;12.186;2023-07-30T02:14:24;19.60;91.60
4584;DHT22;2304;47.606;12.186;2023-07-30T02:19:26;19.60;91.80
4584;DHT22;2304;47.606;12.186;2023-07-30T02:24:30;19.50;92.20
4584;DHT22;2304;47.606;12.186;2023-07-30T02:29:31;19.50;93.10
4584;DHT22;2304;47.606;12.186;2023-07-30T02:34:33;19.40;92.80
4584;DHT22;2304;47.606;12.186;2023-07-30T02:39:37;19.30;93.20
4584;DHT22;2304;47.606;12.186;2023-07-30T02:44:39;19.20;93.40
4584;DHT22;2304;47.606;12.186;2023-07-30T02:49:40;19.20;93.50
4584;DHT22;2304;47.606;12.186;2023-07-30T02:54:44;19.20;93.20
4584;DHT22;2304;47.606;12.186;2023-07-30T02:59:45;19.10;93.10
4584;DHT22;2304;47.606;12.186;2023-07-30T03:04:48;19.10;93.30
4584;DHT22;2304;47.606;12.186;2023-07-30T03:09:51;19.10;93.00
4584;DHT22;2304;47.606;12.186;2023-07-30T03:14:53;19.00;93.20
4584;DHT22;2304;47.606;12.186;2023-07-30T03:19:55;19.00;93.00
4584;DHT22;2304;47.606;12.186;2023-07-30T03:24:58;19.00;93.10
4584;DHT22;2304;47.606;12.186;2023-07-30T03:30:00;19.00;93.10
4584;DHT22;2304;47.606;12.186;2023-07-30T03:35:02;18.90;92.80
4584;DHT22;2304;47.606;12.186;2023-07-30T03:40:06;18.90;93.10
4584;DHT22;2304;47.606;12.186;2023-07-30T03:45:09;18.90;93.40
4584;DHT22;2304;47.606;12.186;2023-07-30T03:50:11;18.90;93.20
4584;DHT22;2304;47.606;12.186;2023-07-30T03:55:14;18.80;93.00
4584;DHT22;2304;47.606;12.186;2023-07-30T04:00:16;18.80;92.90
4584;DHT22;2304;47.606;12.186;2023-07-30T04:05:18;18.80;93.20
4584;DHT22;2304;47.606;12.186;2023-07-30T04:10:22;18.80;93.70
4584;DHT22;2304;47.606;12.186;2023-07-30T04:15:24;18.90;94.80
4584;DHT22;2304;47.606;12.186;2023-07-30T04:20:26;18.90;94.50
4584;DHT22;2304;47.606;12.186;2023-07-30T04:25:29;18.90;94.30
4584;DHT22;2304;47.606;12.186;2023-07-30T04:30:32;18.90;94.00
4584;DHT22;2304;47.606;12.186;2023-07-30T04:35:34;18.90;93.60
4584;DHT22;2304;47.606;12.186;2023-07-30T04:40:38;18.90;93.10
4584;DHT22;2304;47.606;12.186;2023-07-30T04:45:40;19.00;93.20
4584;DHT22;2304;47.606;12.186;2023-07-30T04:50:43;19.10;92.80
4584;DHT22;2304;47.606;12.186;2023-07-30T04:55:46;19.30;92.90
4584;DHT22;2304;47.606;12.186;2023-07-30T05:00:48;19.10;92.80
4584;DHT22;2304;47.606;12.186;2023-07-30T05:05:50;19.10;92.80
4584;DHT22;2304;47.606;12.186;2023-07-30T05:10:53;19.20;92.80
4584;DHT22;2304;47.606;12.186;2023-07-30T05:15:55;19.30;92.30
4584;DHT22;2304;47.606;12.186;2023-07-30T05:20:57;19.30;91.70
4584;DHT22;2304;47.606;12.186;2023-07-30T05:26:00;19.40;91.00
4584;DHT22;2304;47.606;12.186;2023-07-30T05:31:02;19.40;91.30
4584;DHT22;2304;47.606;12.186;2023-07-30T05:36:04;19.20;90.20
4584;DHT22;2304;47.606;12.186;2023-07-30T05:41:08;19.30;90.30
4584;DHT22;2304;47.606;12.186;2023-07-30T05:46:10;19.20;90.30
4584;DHT22;2304;47.606;12.186;2023-07-30T05:51:12;19.40;90.40
4584;DHT22;2304;47.606;12.186;2023-07-30T05:56:15;19.50;90.00
4584;DHT22;2304;47.606;12.186;2023-07-30T06:01:19;19.40;88.70
4584;DHT22;2304;47.606;12.186;2023-07-30T06:06:21;19.40;89.90
4584;DHT22;2304;47.606;12.186;2023-07-30T06:11:29;19.50;89.60
4584;DHT22;2304;47.606;12.186;2023-07-30T06:16:31;19.50;89.20
4584;DHT22;2304;47.606;12.186;2023-07-30T06:21:32;19.60;89.70
4584;DHT22;2304;47.606;12.186;2023-07-30T06:26:36;19.50;89.90
4584;DHT22;2304;47.606;12.186;2023-07-30T06:31:37;19.50;90.10
4584;DHT22;2304;47.606;12.186;2023-07-30T06:36:40;19.80;89.60
4584;DHT22;2304;47.606;12.186;2023-07-30T06:41:43;20.10;87.30
4584;DHT22;2304;47.606;12.186;2023-07-30T06:46:45;20.20;84.60
4584;DHT22;2304;47.606;12.186;2023-07-30T06:51:47;20.20;83.40
4584;DHT22;2304;47.606;12.186;2023-07-30T06:56:50;20.30;83.20
4584;DHT22;2304;47.606;12.186;2023-07-30T07:01:52;20.30;86.20
4584;DHT22;2304;47.606;12.186;2023-07-30T07:06:54;20.40;86.50
4584;DHT22;2304;47.606;12.186;2023-07-30T07:11:57;20.40;86.30
4584;DHT22;2304;47.606;12.186;2023-07-30T07:16:59;20.50;84.50
4584;DHT22;2304;47.606;12.186;2023-07-30T07:22:01;20.50;86.20
4584;DHT22;2304;47.606;12.186;2023-07-30T07:27:05;20.60;86.60
4584;DHT22;2304;47.606;12.186;2023-07-30T07:32:07;21.10;84.20
4584;DHT22;2304;47.606;12.186;2023-07-30T07:37:09;21.40;82.80
4584;DHT22;2304;47.606;12.186;2023-07-30T07:42:12;21.60;79.60
4584;DHT22;2304;47.606;12.186;2023-07-30T07:47:14;22.00;76.50
4584;DHT22;2304;47.606;12.186;2023-07-30T07:52:16;22.20;75.10
4584;DHT22;2304;47.606;12.186;2023-07-30T07:57:19;22.20;75.10
4584;DHT22;2304;47.606;12.186;2023-07-30T08:02:21;22.30;73.90
4584;DHT22;2304;47.606;12.186;2023-07-30T08:07:24;22.40;71.00
4584;DHT22;2304;47.606;12.186;2023-07-30T08:12:27;22.10;70.00
4584;DHT22;2304;47.606;12.186;2023-07-30T08:17:29;22.10;74.80
4584;DHT22;2304;47.606;12.186;2023-07-30T08:22:31;22.00;74.40
4584;DHT22;2304;47.606;12.186;2023-07-30T08:27:34;22.00;75.80
4584;DHT22;2304;47.606;12.186;2023-07-30T08:32:36;21.90;77.50
4584;DHT22;2304;47.606;12.186;2023-07-30T08:37:38;21.80;76.90
4584;DHT22;2304;47.606;12.186;2023-07-30T08:42:41;21.70;76.70
4584;DHT22;2304;47.606;12.186;2023-07-30T08:47:44;21.70;75.40
4584;DHT22;2304;47.606;12.186;2023-07-30T08:52:47;21.90;76.60
4584;DHT22;2304;47.606;12.186;2023-07-30T08:57:51;22.30;76.70
4584;DHT22;2304;47.606;12.186;2023-07-30T09:02:55;22.60;74.50
4584;DHT22;2304;47.606;12.186;2023-07-30T09:07:57;22.70;72.50
4584;DHT22;2304;47.606;12.186;2023-07-30T09:13:02;23.00;72.10
4584;DHT22;2304;47.606;12.186;2023-07-30T09:18:04;22.70;71.40
4584;DHT22;2304;47.606;12.186;2023-07-30T09:23:06;22.50;71.90
4584;DHT22;2304;47.606;12.186;2023-07-30T09:28:10;22.20;73.40
4584;DHT22;2304;47.606;12.186;2023-07-30T09:33:18;22.00;76.00
4584;DHT22;2304;47.606;12.186;2023-07-30T09:38:20;21.70;78.40
4584;DHT22;2304;47.606;12.186;2023-07-30T09:43:28;21.60;79.60
4584;DHT22;2304;47.606;12.186;2023-07-30T09:48:31;21.60;79.80
4584;DHT22;2304;47.606;12.186;2023-07-30T09:53:33;21.50;80.40
4584;DHT22;2304;47.606;12.186;2023-07-30T09:58:37;21.70;81.50
4584;DHT22;2304;47.606;12.186;2023-07-30T10:03:39;22.40;85.40
4584;DHT22;2304;47.606;12.186;2023-07-30T10:08:41;22.70;78.00
4584;DHT22;2304;47.606;12.186;2023-07-30T10:13:47;23.10;77.30
4584;DHT22;2304;47.606;12.186;2023-07-30T10:18:55;23.40;71.10
4584;DHT22;2304;47.606;12.186;2023-07-30T10:23:59;23.20;66.90
4584;DHT22;2304;47.606;12.186;2023-07-30T10:29:16;23.10;69.70
4584;DHT22;2304;47.606;12.186;2023-07-30T10:34:18;22.90;68.70
4584;DHT22;2304;47.606;12.186;2023-07-30T10:39:25;22.90;69.50
4584;DHT22;2304;47.606;12.186;2023-07-30T10:44:31;23.40;73.50
4584;DHT22;2304;47.606;12.186;2023-07-30T10:49:36;23.60;70.70
4584;DHT22;2304;47.606;12.186;2023-07-30T10:54:39;23.80;69.90
4584;DHT22;2304;47.606;12.186;2023-07-30T10:59:42;24.10;68.90
4584;DHT22;2304;47.606;12.186;2023-07-30T11:04:44;24.30;65.20
4584;DHT22;2304;47.606;12.186;2023-07-30T11:09:58;24.30;64.90
4584;DHT22;2304;47.606;12.186;2023-07-30T11:15:04;24.40;63.90
4584;DHT22;2304;47.606;12.186;2023-07-30T11:20:07;24.50;65.10
4584;DHT22;2304;47.606;12.186;2023-07-30T11:25:16;24.60;63.70
4584;DHT22;2304;47.606;12.186;2023-07-30T11:30:20;24.60;64.20
4584;DHT22;2304;47.606;12.186;2023-07-30T11:35:22;24.20;62.60
4584;DHT22;2304;47.606;12.186;2023-07-30T11:40:24;23.90;64.00
4584;DHT22;2304;47.606;12.186;2023-07-30T11:45:27;23.70;66.10
4584;DHT22;2304;47.606;12.186;2023-07-30T11:50:43;23.70;66.40
4584;DHT22;2304;47.606;12.186;2023-07-30T11:55:45;23.80;67.10
4584;DHT22;2304;47.606;12.186;2023-07-30T12:00:48;24.00;68.00
4584;DHT22;2304;47.606;12.186;2023-07-30T12:05:50;24.20;65.00
4584;DHT22;2304;47.606;12.186;2023-07-30T12:10:52;24.30;62.90
4584;DHT22;2304;47.606;12.186;2023-07-30T12:15:57;24.40;65.00
4584;DHT22;2304;47.606;12.186;2023-07-30T12:20:59;24.70;63.30
4584;DHT22;2304;47.606;12.186;2023-07-30T12:26:02;25.20;63.20
4584;DHT22;2304;47.606;12.186;2023-07-30T12:31:07;25.50;61.80
4584;DHT22;2304;47.606;12.186;2023-07-30T12:36:09;25.70;58.20
4584;DHT22;2304;47.606;12.186;2023-07-30T12:41:10;26.00;56.20
4584;DHT22;2304;47.606;12.186;2023-07-30T12:46:14;26.40;56.40
4584;DHT22;2304;47.606;12.186;2023-07-30T12:51:16;26.70;52.00
4584;DHT22;2304;47.606;12.186;2023-07-30T12:56:18;26.70;49.40
4584;DHT22;2304;47.606;12.186;2023-07-30T13:01:21;26.60;49.20
4584;DHT22;2304;47.606;12.186;2023-07-30T13:06:24;26.80;49.60
4584;DHT22;2304;47.606;12.186;2023-07-30T13:11:26;26.70;47.50
4584;DHT22;2304;47.606;12.186;2023-07-30T13:16:29;26.80;49.90
4584;DHT22;2304;47.606;12.186;2023-07-30T13:21:32;26.90;50.20
4584;DHT22;2304;47.606;12.186;2023-07-30T13:26:36;26.70;50.70
4584;DHT22;2304;47.606;12.186;2023-07-30T13:31:40;26.50;50.70
4584;DHT22;2304;47.606;12.186;2023-07-30T13:36:42;26.30;50.50
4584;DHT22;2304;47.606;12.186;2023-07-30T13:41:44;26.10;52.50
4584;DHT22;2304;47.606;12.186;2023-07-30T13:46:47;25.90;52.80
4584;DHT22;2304;47.606;12.186;2023-07-30T13:51:49;25.90;56.20
4584;DHT22;2304;47.606;12.186;2023-07-30T13:56:51;25.60;56.20
4584;DHT22;2304;47.606;12.186;2023-07-30T14:01:54;25.40;59.40
4584;DHT22;2304;47.606;12.186;2023-07-30T14:06:56;25.20;61.90
4584;DHT22;2304;47.606;12.186;2023-07-30T14:11:58;25.00;63.90
4584;DHT22;2304;47.606;12.186;2023-07-30T14:17:01;24.30;58.70
4584;DHT22;2304;47.606;12.186;2023-07-30T14:22:07;23.20;60.60
4584;DHT22;2304;47.606;12.186;2023-07-30T14:27:09;23.40;58.80
4584;DHT22;2304;47.606;12.186;2023-07-30T14:32:12;23.90;61.10
4584;DHT22;2304;47.606;12.186;2023-07-30T14:37:14;23.80;59.20
4584;DHT22;2304;47.606;12.186;2023-07-30T14:42:16;23.40;54.80
4584;DHT22;2304;47.606;12.186;2023-07-30T14:47:20;23.20;57.10
4584;DHT22;2304;47.606;12.186;2023-07-30T14:52:23;23.10;55.70
4584;DHT22;2304;47.606;12.186;2023-07-30T14:57:25;23.10;59.90
4584;DHT22;2304;47.606;12.186;2023-07-30T15:02:28;23.20;59.10
4584;DHT22;2304;47.606;12.186;2023-07-30T15:07:30;23.70;59.30
4584;DHT22;2304;47.606;12.186;2023-07-30T15:12:32;23.90;56.80
4584;DHT22;2304;47.606;12.186;2023-07-30T15:17:36;24.30;56.70
4584;DHT22;2304;47.606;12.186;2023-07-30T15:22:37;24.60;56.60
4584;DHT22;2304;47.606;12.186;2023-07-30T15:27:39;24.80;55.70
4584;DHT22;2304;47.606;12.186;2023-07-30T15:32:43;24.90;55.60
4584;DHT22;2304;47.606;12.186;2023-07-30T15:37:45;24.90;54.70
4584;DHT22;2304;47.606;12.186;2023-07-30T15:42:47;25.00;53.90
4584;DHT22;2304;47.606;12.186;2023-07-30T15:47:50;25.00;54.00
4584;DHT22;2304;47.606;12.186;2023-07-30T15:52:54;24.80;53.00
4584;DHT22;2304;47.606;12.186;2023-07-30T15:57:55;24.60;54.10
4584;DHT22;2304;47.606;12.186;2023-07-30T16:03:00;24.30;53.00
4584;DHT22;2304;47.606;12.186;2023-07-30T16:08:06;24.10;52.60
4584;DHT22;2304;47.606;12.186;2023-07-30T16:13:08;24.00;54.40
4584;DHT22;2304;47.606;12.186;2023-07-30T16:18:11;23.90;54.50
4584;DHT22;2304;47.606;12.186;2023-07-30T16:23:13;23.70;55.50
4584;DHT22;2304;47.606;12.186;2023-07-30T16:28:15;23.50;55.90
4584;DHT22;2304;47.606;12.186;2023-07-30T16:33:18;23.50;55.80
4584;DHT22;2304;47.606;12.186;2023-07-30T16:38:20;23.50;56.10
4584;DHT22;2304;47.606;12.186;2023-07-30T16:43:22;23.40;57.00
4584;DHT22;2304;47.606;12.186;2023-07-30T16:48:25;23.30;56.90
4584;DHT22;2304;47.606;12.186;2023-07-30T16:53:27;23.20;58.00
4584;DHT22;2304;47.606;12.186;2023-07-30T16:58:29;23.00;58.20
4584;DHT22;2304;47.606;12.186;2023-07-30T17:03:34;22.80;57.70
4584;DHT22;2304;47.606;12.186;2023-07-30T17:08:36;22.70;57.80
4584;DHT22;2304;47.606;12.186;2023-07-30T17:13:38;22.70;59.10
4584;DHT22;2304;47.606;12.186;2023-07-30T17:18:41;22.70;60.30
4584;DHT22;2304;47.606;12.186;2023-07-30T17:23:43;22.70;61.10
4584;DHT22;2304;47.606;12.186;2023-07-30T17:28:45;22.60;61.90
4584;DHT22;2304;47.606;12.186;2023-07-30T17:33:48;22.50;62.10
4584;DHT22;2304;47.606;12.186;2023-07-30T17:38:50;22.50;62.50
4584;DHT22;2304;47.606;12.186;2023-07-30T17:43:52;22.40;63.50
4584;DHT22;2304;47.606;12.186;2023-07-30T17:48:55;22.30;64.00
4584;DHT22;2304;47.606;12.186;2023-07-30T17:53:57;22.20;65.00
4584;DHT22;2304;47.606;12.186;2023-07-30T17:59:00;22.00;65.00
4584;DHT22;2304;47.606;12.186;2023-07-30T18:04:03;21.80;65.30
4584;DHT22;2304;47.606;12.186;2023-07-30T18:09:05;21.70;65.50
4584;DHT22;2304;47.606;12.186;2023-07-30T18:14:07;21.60;65.00
4584;DHT22;2304;47.606;12.186;2023-07-30T18:19:10;21.50;65.30
4584;DHT22;2304;47.606;12.186;2023-07-30T18:24:12;21.40;66.10
4584;DHT22;2304;47.606;12.186;2023-07-30T18:29:14;21.40;66.10
4584;DHT22;2304;47.606;12.186;2023-07-30T18:34:18;21.30;66.60
4584;DHT22;2304;47.606;12.186;2023-07-30T18:39:20;21.30;66.80
4584;DHT22;2304;47.606;12.186;2023-07-30T18:44:22;21.30;67.20
4584;DHT22;2304;47.606;12.186;2023-07-30T18:49:26;21.10;67.30
4584;DHT22;2304;47.606;12.186;2023-07-30T18:54:28;21.10;67.80
4584;DHT22;2304;47.606;12.186;2023-07-30T18:59:30;21.10;67.60
4584;DHT22;2304;47.606;12.186;2023-07-30T19:04:33;21.10;67.30
4584;DHT22;2304;47.606;12.186;2023-07-30T19:09:35;20.90;68.10
4584;DHT22;2304;47.606;12.186;2023-07-30T19:14:37;21.00;69.10
4584;DHT22;2304;47.606;12.186;2023-07-30T19:19:40;20.90;69.90
4584;DHT22;2304;47.606;12.186;2023-07-30T19:24:43;20.80;69.30
4584;DHT22;2304;47.606;12.186;2023-07-30T19:29:45;20.90;69.50
4584;DHT22;2304;47.606;12.186;2023-07-30T19:34:49;20.80;69.50
4584;DHT22;2304;47.606;12.186;2023-07-30T19:39:50;20.80;70.40
4584;DHT22;2304;47.606;12.186;2023-07-30T19:44:52;20.70;71.10
4584;DHT22;2304;47.606;12.186;2023-07-30T19:49:56;20.60;70.00
4584;DHT22;2304;47.606;12.186;2023-07-30T19:54:58;20.60;70.40
4584;DHT22;2304;47.606;12.186;2023-07-30T20:00:00;20.50;71.20
4584;DHT22;2304;47.606;12.186;2023-07-30T20:05:03;20.30;71.00
4584;DHT22;2304;47.606;12.186;2023-07-30T20:10:06;20.30;72.20
4584;DHT22;2304;47.606;12.186;2023-07-30T20:15:09;20.20;72.90
4584;DHT22;2304;47.606;12.186;2023-07-30T20:20:12;20.20;73.10
4584;DHT22;2304;47.606;12.186;2023-07-30T20:25:14;20.10;73.80
4584;DHT22;2304;47.606;12.186;2023-07-30T20:30:16;20.20;73.70
4584;DHT22;2304;47.606;12.186;2023-07-30T20:35:19;20.00;74.00
4584;DHT22;2304;47.606;12.186;2023-07-30T20:40:21;20.00;74.50
4584;DHT22;2304;47.606;12.186;2023-07-30T20:45:23;20.00;74.50
4584;DHT22;2304;47.606;12.186;2023-07-30T20:50:26;20.00;74.50
4584;DHT22;2304;47.606;12.186;2023-07-30T20:55:28;20.00;74.50
4584;DHT22;2304;47.606;12.186;2023-07-30T21:00:30;19.90;74.40
4584;DHT22;2304;47.606;12.186;2023-07-30T21:05:33;19.90;74.80
4584;DHT22;2304;47.606;12.186;2023-07-30T21:10:35;19.90;75.10
4584;DHT22;2304;47.606;12.186;2023-07-30T21:15:37;19.90;75.00
4584;DHT22;2304;47.606;12.186;2023-07-30T21:20:40;19.80;75.60
4584;DHT22;2304;47.606;12.186;2023-07-30T21:25:42;19.70;75.90
4584;DHT22;2304;47.606;12.186;2023-07-30T21:30:44;19.70;75.80
4584;DHT22;2304;47.606;12.186;2023-07-30T21:35:47;19.70;75.70
4584;DHT22;2304;47.606;12.186;2023-07-30T21:40:49;19.70;75.80
4584;DHT22;2304;47.606;12.186;2023-07-30T21:45:51;19.70;75.60
4584;DHT22;2304;47.606;12.186;2023-07-30T21:51:01;19.70;75.90
4584;DHT22;2304;47.606;12.186;2023-07-30T21:56:03;19.60;75.70
4584;DHT22;2304;47.606;12.186;2023-07-30T22:01:05;19.60;74.90
4584;DHT22;2304;47.606;12.186;2023-07-30T22:06:08;19.60;74.40
4584;DHT22;2304;47.606;12.186;2023-07-30T22:11:13;19.50;74.30
4584;DHT22;2304;47.606;12.186;2023-07-30T22:16:16;19.60;74.60
4584;DHT22;2304;47.606;12.186;2023-07-30T22:21:19;19.50;73.70
4584;DHT22;2304;47.606;12.186;2023-07-30T22:26:21;19.50;73.50
4584;DHT22;2304;47.606;12.186;2023-07-30T22:31:23;19.60;73.00
4584;DHT22;2304;47.606;12.186;2023-07-30T22:36:26;19.60;72.40
4584;DHT22;2304;47.606;12.186;2023-07-30T22:41:28;19.60;72.30
4584;DHT22;2304;47.606;12.186;2023-07-30T22:46:29;19.60;71.70
4584;DHT22;2304;47.606;12.186;2023-07-30T22:51:33;19.50;71.00
4584;DHT22;2304;47.606;12.186;2023-07-30T22:56:34;19.50;71.30
4584;DHT22;2304;47.606;12.186;2023-07-30T23:01:36;19.40;71.80
4584;DHT22;2304;47.606;12.186;2023-07-30T23:06:40;19.40;71.50
4584;DHT22;2304;47.606;12.186;2023-07-30T23:11:41;19.40;71.20
4584;DHT22;2304;47.606;12.186;2023-07-30T23:16:44;19.40;71.00
4584;DHT22;2304;47.606;12.186;2023-07-30T23:21:47;19.40;70.90
4584;DHT22;2304;47.606;12.186;2023-07-30T23:26:49;19.30;70.60
4584;DHT22;2304;47.606;12.186;2023-07-30T23:31:51;19.30;70.70
4584;DHT22;2304;47.606;12.186;2023-07-30T23:36:55;19.20;71.20
4584;DHT22;2304;47.606;12.186;2023-07-30T23:41:56;19.20;71.40
4584;DHT22;2304;47.606;12.186;2023-07-30T23:46:58;19.20;71.20
4584;DHT22;2304;47.606;12.186;2023-07-30T23:52:02;19.20;70.90
4584;DHT22;2304;47.606;12.186;2023-07-30T23:57:04;19.10;71.00
